createdAt,value
2019-05-10T00:00:05.801Z,11.44
2019-05-10T00:01:05.755Z,11.45
2019-05-10T00:02:05.772Z,11.43
2019-05-10T00:03:05.768Z,11.41
2019-05-10T00:04:05.817Z,11.37
2019-05-10T00:05:05.753Z,11.44
2019-05-10T00:06:05.737Z,11.37
2019-05-10T00:07:07.349Z,11.34
2019-05-10T00:08:05.754Z,11.33
2019-05-10T00:09:05.705Z,11.33
2019-05-10T00:10:05.681Z,11.33
2019-05-10T00:11:05.831Z,11.43
2019-05-10T00:12:05.657Z,11.35
2019-05-10T00:13:05.655Z,11.27
2019-05-10T00:14:05.654Z,11.35
2019-05-10T00:15:05.616Z,11.26
2019-05-10T00:16:06.509Z,11.37
2019-05-10T00:17:05.637Z,11.30
2019-05-10T00:18:05.593Z,11.31
2019-05-10T00:19:05.581Z,11.27
2019-05-10T00:20:05.575Z,11.27
2019-05-10T00:21:05.546Z,11.26
2019-05-10T00:22:05.606Z,11.26
2019-05-10T00:23:05.556Z,11.27
2019-05-10T00:24:05.515Z,11.37
2019-05-10T00:25:06.416Z,11.23
2019-05-10T00:26:05.491Z,11.33
2019-05-10T00:27:05.499Z,11.31
2019-05-10T00:28:05.529Z,11.27
2019-05-10T00:29:05.514Z,11.26
2019-05-10T00:30:05.464Z,11.35
2019-05-10T00:31:05.491Z,11.22
2019-05-10T00:32:05.436Z,11.27
2019-05-10T00:33:05.458Z,11.31
2019-05-10T00:34:05.447Z,11.27
2019-05-10T00:35:05.422Z,11.31
2019-05-10T00:36:05.407Z,11.30
2019-05-10T00:37:05.428Z,11.27
2019-05-10T00:38:05.413Z,11.27
2019-05-10T00:39:05.408Z,11.30
2019-05-10T00:40:05.392Z,11.31
2019-05-10T00:41:05.350Z,11.33
2019-05-10T00:42:05.354Z,11.27
2019-05-10T00:43:05.341Z,11.26
2019-05-10T00:44:05.362Z,11.26
2019-05-10T00:45:05.346Z,11.37
2019-05-10T00:46:05.319Z,11.35
2019-05-10T00:47:05.371Z,11.44
2019-05-10T00:48:05.267Z,11.35
2019-05-10T00:49:05.296Z,11.40
2019-05-10T00:50:05.280Z,11.30
2019-05-10T00:51:05.238Z,11.25
2019-05-10T00:52:05.230Z,11.25
2019-05-10T00:53:05.295Z,11.30
2019-05-10T00:54:05.253Z,11.30
2019-05-10T00:55:17.728Z,11.30
2019-05-10T00:56:06.177Z,11.26
2019-05-10T00:57:05.160Z,11.33
2019-05-10T00:58:05.176Z,11.33
2019-05-10T00:59:05.176Z,11.41
2019-05-10T01:00:05.136Z,11.35
2019-05-10T01:01:05.147Z,11.45
2019-05-10T01:02:14.556Z,11.49
2019-05-10T01:03:14.483Z,11.41
2019-05-10T01:04:14.998Z,11.52
2019-05-10T01:05:13.496Z,11.48
2019-05-10T01:06:14.555Z,11.43
2019-05-10T01:08:21.957Z,11.43
2019-05-10T01:09:29.599Z,11.51
2019-05-10T01:10:30.346Z,11.49
2019-05-10T01:11:31.392Z,11.45
2019-05-10T01:12:31.892Z,11.51
2019-05-10T01:13:31.427Z,11.58
2019-05-10T01:14:21.886Z,11.55
2019-05-10T01:15:21.906Z,11.52
2019-05-10T01:16:21.879Z,11.51
2019-05-10T01:17:21.856Z,11.45
2019-05-10T01:18:21.923Z,11.48
2019-05-10T01:19:21.822Z,11.62
2019-05-10T01:20:31.434Z,11.51
2019-05-10T01:21:21.804Z,11.58
2019-05-10T01:22:21.786Z,11.58
2019-05-10T01:23:21.800Z,11.51
2019-05-10T01:24:21.786Z,11.59
2019-05-10T01:25:34.065Z,11.53
2019-05-10T01:26:22.755Z,11.52
2019-05-10T01:27:21.785Z,11.58
2019-05-10T01:28:21.751Z,11.62
2019-05-10T01:29:21.724Z,11.60
2019-05-10T01:30:21.722Z,11.68
2019-05-10T01:31:21.731Z,11.65
2019-05-10T01:32:21.741Z,11.65
2019-05-10T01:33:21.676Z,11.70
2019-05-10T01:34:21.661Z,11.67
2019-05-10T01:35:21.694Z,11.63
2019-05-10T01:36:21.677Z,11.71
2019-05-10T01:37:21.650Z,11.67
2019-05-10T01:38:21.644Z,11.65
2019-05-10T01:39:21.624Z,11.68
2019-05-10T01:40:21.597Z,11.73
2019-05-10T01:41:21.605Z,11.73
2019-05-10T01:42:21.600Z,11.76
2019-05-10T01:43:21.576Z,11.81
2019-05-10T01:44:21.570Z,11.80
2019-05-10T01:45:21.543Z,11.74
2019-05-10T01:46:21.574Z,11.71
2019-05-10T01:47:21.557Z,11.78
2019-05-10T01:48:21.546Z,11.73
2019-05-10T01:49:21.511Z,11.70
2019-05-10T01:50:21.505Z,11.83
2019-05-10T01:51:21.489Z,11.81
2019-05-10T01:52:21.485Z,11.86
2019-05-10T01:53:21.522Z,11.88
2019-05-10T01:54:21.456Z,11.86
2019-05-10T01:55:21.478Z,11.93
2019-05-10T01:56:21.460Z,11.88
2019-05-10T01:57:21.488Z,11.89
2019-05-10T01:58:21.463Z,11.88
2019-05-10T01:59:21.435Z,11.89
2019-05-10T02:00:21.410Z,11.89
2019-05-10T02:01:21.402Z,11.88
2019-05-10T02:02:21.399Z,11.89
2019-05-10T02:03:21.380Z,11.91
2019-05-10T02:04:21.350Z,11.88
2019-05-10T02:05:21.346Z,11.85
2019-05-10T02:06:21.334Z,11.95
2019-05-10T02:07:22.637Z,11.95
2019-05-10T02:08:24.555Z,12.03
2019-05-10T02:09:22.412Z,12.03
2019-05-10T02:10:22.875Z,12.02
2019-05-10T02:11:21.304Z,12.03
2019-05-10T02:12:21.564Z,12.03
2019-05-10T02:13:21.471Z,11.95
2019-05-10T02:14:22.720Z,12.03
2019-05-10T02:15:21.342Z,11.96
2019-05-10T02:16:22.925Z,12.00
2019-05-10T02:17:22.377Z,12.14
2019-05-10T02:18:22.043Z,12.12
2019-05-10T02:19:21.888Z,12.11
2019-05-10T02:20:22.275Z,12.08
2019-05-10T02:21:23.009Z,12.12
2019-05-10T02:22:22.177Z,12.20
2019-05-10T02:23:23.583Z,12.18
2019-05-10T02:24:22.009Z,12.15
2019-05-10T02:25:22.381Z,12.17
2019-05-10T02:26:21.262Z,12.18
2019-05-10T02:27:21.882Z,12.14
2019-05-10T02:28:22.043Z,12.17
2019-05-10T02:29:22.411Z,12.21
2019-05-10T02:30:21.886Z,12.20
2019-05-10T02:31:21.896Z,12.26
2019-05-10T02:32:22.465Z,12.23
2019-05-10T02:33:21.971Z,12.21
2019-05-10T02:34:21.362Z,12.25
2019-05-10T02:35:21.160Z,12.28
2019-05-10T02:36:22.211Z,12.28
2019-05-10T02:37:22.676Z,12.20
2019-05-10T02:38:21.900Z,12.23
2019-05-10T02:39:22.888Z,12.25
2019-05-10T02:40:22.224Z,12.20
2019-05-10T02:41:21.896Z,12.25
2019-05-10T02:42:21.892Z,12.18
2019-05-10T02:43:21.098Z,12.17
2019-05-10T02:44:21.886Z,12.25
2019-05-10T02:45:21.027Z,12.14
2019-05-10T02:46:21.456Z,12.17
2019-05-10T02:47:21.018Z,12.10
2019-05-10T02:48:20.918Z,12.17
2019-05-10T02:49:20.914Z,12.12
2019-05-10T02:50:20.892Z,12.17
2019-05-10T02:51:20.854Z,12.26
2019-05-10T02:52:20.845Z,12.26
2019-05-10T02:53:20.861Z,12.30
2019-05-10T02:54:20.822Z,12.32
2019-05-10T02:55:20.893Z,12.29
2019-05-10T02:56:30.286Z,12.30
2019-05-10T02:57:21.812Z,12.29
2019-05-10T02:58:20.820Z,12.29
2019-05-10T02:59:20.791Z,12.32
2019-05-10T03:00:20.755Z,12.28
2019-05-10T03:01:20.748Z,12.29
2019-05-10T03:02:20.804Z,12.39
2019-05-10T03:03:20.729Z,12.35
2019-05-10T03:04:20.748Z,12.35
2019-05-10T03:05:20.725Z,12.32
2019-05-10T03:06:20.712Z,12.32
2019-05-10T03:07:20.814Z,12.39
2019-05-10T03:08:20.680Z,12.36
2019-05-10T03:09:20.680Z,12.37
2019-05-10T03:10:20.689Z,12.32
2019-05-10T03:11:20.682Z,12.33
2019-05-10T03:12:20.659Z,12.33
2019-05-10T03:13:20.619Z,12.32
2019-05-10T03:14:20.640Z,12.29
2019-05-10T03:15:20.625Z,12.35
2019-05-10T03:16:20.686Z,12.29
2019-05-10T03:17:20.602Z,12.30
2019-05-10T03:18:20.561Z,12.30
2019-05-10T03:19:20.560Z,12.28
2019-05-10T03:20:20.590Z,12.32
2019-05-10T03:21:20.562Z,12.30
2019-05-10T03:22:20.533Z,12.30
2019-05-10T03:23:20.545Z,12.30
2019-05-10T03:24:20.529Z,12.29
2019-05-10T03:25:20.499Z,12.25
2019-05-10T03:26:20.532Z,12.26
2019-05-10T03:27:20.483Z,12.15
2019-05-10T03:28:20.593Z,12.12
2019-05-10T03:29:20.477Z,12.18
2019-05-10T03:30:20.464Z,12.15
2019-05-10T03:31:20.450Z,12.14
2019-05-10T03:32:20.446Z,12.14
2019-05-10T03:33:20.451Z,12.08
2019-05-10T03:34:20.419Z,12.10
2019-05-10T03:35:20.396Z,12.05
2019-05-10T03:36:20.365Z,12.11
2019-05-10T03:37:20.421Z,12.02
2019-05-10T03:38:20.356Z,12.15
2019-05-10T03:39:20.392Z,12.05
2019-05-10T03:40:20.330Z,11.97
2019-05-10T03:41:20.325Z,12.02
2019-05-10T03:42:20.372Z,11.97
2019-05-10T03:43:20.350Z,12.11
2019-05-10T03:44:20.298Z,11.97
2019-05-10T03:45:20.279Z,12.00
2019-05-10T03:46:20.477Z,12.00
2019-05-10T03:47:20.334Z,11.99
2019-05-10T03:48:20.268Z,12.10
2019-05-10T03:49:20.313Z,12.03
2019-05-10T03:50:20.225Z,12.03
2019-05-10T03:51:20.212Z,12.11
2019-05-10T03:52:20.212Z,12.02
2019-05-10T03:53:20.260Z,12.11
2019-05-10T03:54:20.228Z,12.02
2019-05-10T03:55:20.196Z,12.08
2019-05-10T03:56:20.179Z,12.07
2019-05-10T03:57:20.149Z,12.18
2019-05-10T03:58:20.157Z,12.18
2019-05-10T03:59:20.144Z,12.17
2019-05-10T04:00:20.131Z,12.18
2019-05-10T04:01:20.118Z,12.25
2019-05-10T04:02:20.103Z,12.21
2019-05-10T04:03:20.093Z,12.21
2019-05-10T04:04:20.325Z,12.32
2019-05-10T04:05:20.094Z,12.25
2019-05-10T04:06:20.065Z,12.25
2019-05-10T04:07:20.045Z,12.29
2019-05-10T04:08:20.030Z,12.29
2019-05-10T04:09:20.059Z,12.35
2019-05-10T04:10:21.093Z,12.33
2019-05-10T04:11:20.044Z,12.33
2019-05-10T04:12:20.247Z,12.33
2019-05-10T04:13:23.189Z,12.39
2019-05-10T04:14:20.342Z,12.32
2019-05-10T04:15:23.784Z,12.39
2019-05-10T04:16:20.107Z,12.40
2019-05-10T04:17:20.919Z,12.33
2019-05-10T04:18:19.964Z,12.39
2019-05-10T04:19:22.115Z,12.35
2019-05-10T04:20:20.769Z,12.47
2019-05-10T04:21:20.005Z,12.47
2019-05-10T04:22:22.083Z,12.54
2019-05-10T04:23:20.327Z,12.57
2019-05-10T04:24:19.885Z,12.44
2019-05-10T04:25:19.866Z,12.51
2019-05-10T04:26:19.863Z,12.39
2019-05-10T04:27:31.497Z,12.48
2019-05-10T04:28:22.464Z,12.61
2019-05-10T04:29:19.889Z,12.61
2019-05-10T04:30:19.812Z,12.62
2019-05-10T04:31:19.948Z,12.63
2019-05-10T04:32:20.409Z,12.63
2019-05-10T04:33:19.812Z,12.58
2019-05-10T04:34:19.767Z,12.61
2019-05-10T04:35:20.072Z,12.65
2019-05-10T04:36:19.969Z,12.69
2019-05-10T04:37:19.737Z,12.63
2019-05-10T04:38:19.900Z,12.80
2019-05-10T04:39:19.761Z,12.65
2019-05-10T04:40:20.341Z,12.75
2019-05-10T04:41:19.863Z,12.68
2019-05-10T04:42:20.117Z,12.66
2019-05-10T04:43:20.867Z,12.69
2019-05-10T04:44:20.421Z,12.81
2019-05-10T04:45:21.930Z,12.81
2019-05-10T04:46:19.668Z,12.76
2019-05-10T04:47:23.905Z,12.80
2019-05-10T04:48:19.679Z,12.83
2019-05-10T04:49:19.623Z,12.78
2019-05-10T04:50:19.590Z,12.80
2019-05-10T04:51:19.596Z,12.81
2019-05-10T04:52:19.671Z,12.86
2019-05-10T04:53:19.568Z,12.90
2019-05-10T04:54:19.682Z,12.90
2019-05-10T04:55:19.581Z,12.93
2019-05-10T04:56:19.578Z,12.98
2019-05-10T04:57:21.727Z,12.93
2019-05-10T04:58:19.516Z,13.01
2019-05-10T04:59:21.307Z,12.98
2019-05-10T05:00:19.485Z,13.01
2019-05-10T05:01:20.418Z,13.09
2019-05-10T05:02:22.075Z,13.02
2019-05-10T05:03:20.532Z,13.12
2019-05-10T05:04:24.339Z,13.05
2019-05-10T05:05:29.858Z,13.05
2019-05-10T05:06:19.409Z,13.16
2019-05-10T05:07:19.393Z,13.20
2019-05-10T05:08:20.651Z,13.19
2019-05-10T05:09:24.457Z,13.23
2019-05-10T05:10:25.647Z,13.24
2019-05-10T05:11:19.958Z,13.36
2019-05-10T05:12:29.111Z,13.31
2019-05-10T05:13:21.066Z,13.37
2019-05-10T05:14:22.131Z,13.40
2019-05-10T05:15:19.414Z,13.37
2019-05-10T05:16:21.171Z,13.47
2019-05-10T05:17:22.058Z,13.45
2019-05-10T05:18:22.605Z,13.57
2019-05-10T05:19:19.287Z,13.61
2019-05-10T05:20:19.278Z,13.60
2019-05-10T05:21:19.278Z,13.55
2019-05-10T05:22:19.252Z,13.75
2019-05-10T05:23:19.224Z,13.76
2019-05-10T05:24:22.900Z,13.75
2019-05-10T05:25:21.995Z,13.70
2019-05-10T05:26:21.065Z,13.76
2019-05-10T05:27:20.994Z,13.80
2019-05-10T05:28:23.286Z,13.75
2019-05-10T05:29:22.007Z,13.83
2019-05-10T05:30:20.640Z,13.87
2019-05-10T05:31:34.228Z,13.85
2019-05-10T05:32:20.058Z,13.87
2019-05-10T05:33:20.090Z,13.82
2019-05-10T05:34:19.677Z,13.83
2019-05-10T05:35:19.168Z,13.93
2019-05-10T05:36:19.240Z,13.91
2019-05-10T05:37:19.124Z,13.95
2019-05-10T05:38:19.307Z,13.94
2019-05-10T05:39:19.212Z,13.91
2019-05-10T05:40:19.106Z,13.93
2019-05-10T05:41:19.075Z,14.04
2019-05-10T05:42:22.381Z,14.12
2019-05-10T05:43:21.773Z,14.16
2019-05-10T05:44:20.263Z,14.22
2019-05-10T05:45:20.187Z,14.23
2019-05-10T05:46:19.082Z,14.33
2019-05-10T05:47:19.686Z,14.31
2019-05-10T05:48:21.529Z,14.38
2019-05-10T05:49:18.971Z,14.48
2019-05-10T05:50:18.994Z,14.59
2019-05-10T05:51:19.093Z,14.73
2019-05-10T05:52:18.969Z,14.82
2019-05-10T05:53:22.425Z,14.86
2019-05-10T05:54:20.615Z,14.97
2019-05-10T05:55:22.766Z,14.97
2019-05-10T05:56:19.107Z,15.02
2019-05-10T05:57:22.243Z,15.04
2019-05-10T05:58:26.505Z,14.99
2019-05-10T05:59:23.799Z,15.04
2019-05-10T06:00:19.951Z,15.08
2019-05-10T06:01:26.124Z,15.07
2019-05-10T06:02:20.506Z,15.14
2019-05-10T06:03:27.767Z,15.12
2019-05-10T06:04:19.796Z,15.25
2019-05-10T06:05:32.708Z,15.29
2019-05-10T06:06:22.196Z,15.51
2019-05-10T06:07:18.756Z,15.55
2019-05-10T06:08:22.897Z,15.57
2019-05-10T06:09:19.750Z,15.57
2019-05-10T06:10:19.866Z,15.51
2019-05-10T06:11:19.499Z,15.48
2019-05-10T06:12:18.728Z,15.51
2019-05-10T06:13:23.515Z,15.60
2019-05-10T06:14:19.849Z,15.59
2019-05-10T06:15:23.078Z,15.55
2019-05-10T06:16:22.190Z,15.54
2019-05-10T06:17:23.831Z,15.48
2019-05-10T06:18:19.717Z,15.36
2019-05-10T06:19:19.944Z,15.32
2019-05-10T06:20:19.715Z,15.33
2019-05-10T06:21:25.110Z,15.30
2019-05-10T06:22:19.638Z,15.26
2019-05-10T06:23:18.640Z,15.33
2019-05-10T06:24:18.649Z,15.25
2019-05-10T06:25:18.733Z,15.33
2019-05-10T06:26:26.503Z,15.32
2019-05-10T06:27:19.638Z,15.29
2019-05-10T06:28:26.899Z,15.29
2019-05-10T06:29:19.860Z,15.25
2019-05-10T06:30:18.560Z,15.23
2019-05-10T06:31:18.554Z,15.35
2019-05-10T06:32:18.615Z,15.25
2019-05-10T06:33:21.132Z,15.26
2019-05-10T06:34:18.533Z,15.22
2019-05-10T06:35:19.548Z,15.23
2019-05-10T06:36:18.563Z,15.26
2019-05-10T06:37:18.562Z,15.35
2019-05-10T06:38:18.490Z,15.33
2019-05-10T06:39:18.541Z,15.57
2019-05-10T06:40:25.659Z,15.50
2019-05-10T06:41:19.422Z,15.66
2019-05-10T06:42:18.655Z,15.67
2019-05-10T06:43:18.448Z,15.72
2019-05-10T06:44:18.458Z,15.55
2019-05-10T06:45:18.372Z,15.50
2019-05-10T06:46:18.483Z,15.54
2019-05-10T06:47:21.681Z,15.57
2019-05-10T06:48:25.763Z,15.65
2019-05-10T06:49:19.349Z,15.66
2019-05-10T06:50:28.997Z,15.70
2019-05-10T06:51:19.379Z,15.81
2019-05-10T06:52:22.023Z,15.85
2019-05-10T06:53:22.993Z,16.05
2019-05-10T06:54:19.022Z,16.02
2019-05-10T06:55:18.275Z,16.13
2019-05-10T06:56:18.288Z,16.16
2019-05-10T06:57:19.388Z,16.28
2019-05-10T06:58:19.013Z,16.29
2019-05-10T06:59:19.455Z,16.36
2019-05-10T07:00:20.207Z,16.32
2019-05-10T07:01:18.228Z,16.26
2019-05-10T07:02:19.938Z,16.44
2019-05-10T07:03:19.256Z,16.32
2019-05-10T07:04:19.098Z,16.31
2019-05-10T07:05:18.258Z,16.47
2019-05-10T07:06:20.063Z,16.51
2019-05-10T07:07:33.112Z,16.51
2019-05-10T07:08:20.584Z,16.54
2019-05-10T07:09:19.015Z,16.47
2019-05-10T07:10:19.380Z,16.32
2019-05-10T07:11:19.136Z,16.37
2019-05-10T07:12:18.554Z,16.43
2019-05-10T07:13:18.210Z,16.41
2019-05-10T07:14:18.516Z,16.47
2019-05-10T07:15:18.092Z,16.49
2019-05-10T07:16:24.096Z,16.47
2019-05-10T07:17:20.016Z,16.22
2019-05-10T07:18:22.533Z,16.16
2019-05-10T07:19:19.082Z,16.24
2019-05-10T07:20:18.059Z,16.13
2019-05-10T07:21:17.977Z,16.16
2019-05-10T07:22:21.673Z,16.06
2019-05-10T07:23:19.034Z,16.09
2019-05-10T07:24:24.347Z,16.13
2019-05-10T07:25:18.974Z,16.03
2019-05-10T07:26:24.599Z,15.94
2019-05-10T07:27:18.952Z,15.90
2019-05-10T07:28:17.980Z,15.91
2019-05-10T07:29:29.723Z,15.91
2019-05-10T07:30:18.896Z,15.83
2019-05-10T07:31:17.906Z,15.90
2019-05-10T07:32:22.118Z,15.83
2019-05-10T07:33:21.025Z,15.91
2019-05-10T07:34:17.884Z,15.90
2019-05-10T07:35:17.894Z,15.91
2019-05-10T07:36:20.920Z,15.81
2019-05-10T07:37:18.831Z,15.88
2019-05-10T07:38:23.520Z,15.90
2019-05-10T07:39:18.843Z,15.73
2019-05-10T07:40:18.525Z,15.90
2019-05-10T07:41:19.648Z,15.88
2019-05-10T07:42:18.911Z,15.87
2019-05-10T07:43:24.877Z,16.03
2019-05-10T07:44:19.688Z,15.99
2019-05-10T07:45:18.763Z,15.90
2019-05-10T07:46:18.729Z,15.94
2019-05-10T07:47:18.575Z,16.03
2019-05-10T07:48:17.943Z,15.88
2019-05-10T07:49:17.730Z,15.94
2019-05-10T07:50:17.846Z,15.83
2019-05-10T07:51:22.681Z,15.90
2019-05-10T07:52:18.676Z,15.70
2019-05-10T07:53:22.908Z,15.66
2019-05-10T07:54:18.672Z,15.75
2019-05-10T07:55:25.346Z,15.83
2019-05-10T07:56:19.579Z,15.70
2019-05-10T07:57:18.591Z,15.66
2019-05-10T07:58:18.589Z,15.78
2019-05-10T07:59:21.962Z,15.78
2019-05-10T08:00:18.567Z,15.87
2019-05-10T08:01:29.083Z,16.03
2019-05-10T08:02:18.557Z,16.16
2019-05-10T08:03:23.359Z,16.26
2019-05-10T08:04:27.574Z,16.41
2019-05-10T08:05:18.620Z,16.51
2019-05-10T08:06:19.350Z,16.72
2019-05-10T08:07:18.552Z,16.91
2019-05-10T08:08:19.217Z,17.23
2019-05-10T08:09:19.279Z,17.34
2019-05-10T08:10:19.066Z,17.37
2019-05-10T08:12:40.135Z,17.60
2019-05-10T08:13:45.635Z,17.59
2019-05-10T08:15:52.270Z,17.54
2019-05-10T08:17:05.789Z,17.59
2019-05-10T08:17:52.223Z,17.86
2019-05-10T08:18:55.574Z,18.12
2019-05-10T08:19:55.058Z,18.45
2019-05-10T08:20:57.742Z,18.34
2019-05-10T08:21:57.403Z,18.46
2019-05-10T08:22:53.220Z,18.55
2019-05-10T08:23:53.997Z,18.68
2019-05-10T08:24:55.896Z,18.76
2019-05-10T08:27:14.006Z,19.30
2019-05-10T08:28:09.725Z,19.53
2019-05-10T08:29:15.129Z,19.74
2019-05-10T08:30:22.756Z,19.74
2019-05-10T08:31:12.183Z,19.81
2019-05-10T08:32:08.648Z,19.99
2019-05-10T08:33:10.851Z,19.72
2019-05-10T08:34:08.681Z,19.87
2019-05-10T08:35:16.207Z,19.89
2019-05-10T08:36:11.968Z,19.77
2019-05-10T08:37:08.610Z,19.67
2019-05-10T08:38:08.697Z,19.66
2019-05-10T08:39:11.025Z,19.41
2019-05-10T08:40:09.480Z,19.42
2019-05-10T08:41:13.469Z,19.34
2019-05-10T08:42:29.391Z,18.97
2019-05-10T08:43:13.041Z,18.64
2019-05-10T08:44:16.638Z,18.58
2019-05-10T08:45:09.530Z,18.55
2019-05-10T08:46:08.617Z,18.45
2019-05-10T08:47:12.592Z,18.42
2019-05-10T08:48:09.525Z,18.43
2019-05-10T08:49:09.483Z,18.48
2019-05-10T08:50:21.552Z,18.49
2019-05-10T08:51:09.493Z,18.37
2019-05-10T08:52:08.549Z,18.30
2019-05-10T08:53:10.698Z,18.16
2019-05-10T08:54:08.469Z,18.02
2019-05-10T08:55:08.516Z,17.91
2019-05-10T08:56:16.063Z,18.08
2019-05-10T08:57:12.671Z,18.37
2019-05-10T08:58:09.384Z,18.53
2019-05-10T08:59:14.567Z,18.60
2019-05-10T09:00:09.487Z,18.64
2019-05-10T09:01:20.550Z,18.71
2019-05-10T09:02:09.395Z,18.64
2019-05-10T09:03:09.761Z,18.48
2019-05-10T09:04:10.874Z,18.34
2019-05-10T09:05:08.317Z,18.16
2019-05-10T09:06:11.862Z,18.21
2019-05-10T09:07:11.766Z,18.23
2019-05-10T09:08:13.555Z,18.34
2019-05-10T09:09:09.337Z,18.49
2019-05-10T09:10:09.692Z,18.49
2019-05-10T09:11:08.313Z,18.51
2019-05-10T09:12:09.332Z,18.60
2019-05-10T09:13:08.255Z,18.55
2019-05-10T09:14:12.380Z,18.57
2019-05-10T09:15:10.308Z,18.66
2019-05-10T09:16:08.262Z,18.70
2019-05-10T09:17:08.259Z,18.78
2019-05-10T09:18:08.351Z,18.88
2019-05-10T09:19:08.188Z,19.04
2019-05-10T09:20:11.984Z,19.08
2019-05-10T09:21:10.814Z,19.44
2019-05-10T09:22:08.999Z,19.63
2019-05-10T09:23:08.589Z,19.45
2019-05-10T09:24:09.275Z,19.52
2019-05-10T09:25:08.097Z,19.37
2019-05-10T09:26:11.725Z,19.57
2019-05-10T09:27:09.133Z,19.49
2019-05-10T09:28:11.511Z,19.60
2019-05-10T09:29:09.062Z,19.42
2019-05-10T09:30:13.055Z,19.29
2019-05-10T09:31:18.648Z,19.15
2019-05-10T09:32:09.265Z,18.92
2019-05-10T09:33:09.005Z,18.98
2019-05-10T09:34:08.119Z,19.26
2019-05-10T09:35:09.218Z,19.08
2019-05-10T09:36:07.995Z,19.11
2019-05-10T09:37:13.124Z,19.19
2019-05-10T09:38:09.033Z,19.32
2019-05-10T09:39:12.618Z,19.38
2019-05-10T09:40:09.865Z,19.59
2019-05-10T09:41:07.928Z,19.67
2019-05-10T09:42:11.036Z,19.67
2019-05-10T09:43:09.866Z,19.39
2019-05-10T09:44:07.884Z,19.27
2019-05-10T09:45:09.839Z,19.26
2019-05-10T09:46:08.556Z,18.98
2019-05-10T09:47:07.895Z,18.86
2019-05-10T09:48:07.853Z,18.79
2019-05-10T09:49:15.746Z,18.49
2019-05-10T09:50:08.920Z,18.33
2019-05-10T09:51:08.561Z,18.16
2019-05-10T09:52:12.527Z,17.95
2019-05-10T09:53:10.254Z,17.79
2019-05-10T09:54:07.864Z,17.68
2019-05-10T09:55:10.232Z,17.65
2019-05-10T09:56:08.780Z,17.47
2019-05-10T09:57:08.268Z,17.35
2019-05-10T09:58:08.590Z,17.22
2019-05-10T09:59:08.527Z,17.22
2019-05-10T10:00:07.734Z,17.07
2019-05-10T10:01:14.801Z,17.04
2019-05-10T10:02:14.549Z,16.97
2019-05-10T10:03:08.753Z,16.83
2019-05-10T10:04:07.701Z,16.69
2019-05-10T10:05:07.663Z,16.54
2019-05-10T10:06:11.117Z,16.54
2019-05-10T10:07:07.672Z,16.49
2019-05-10T10:08:09.086Z,16.40
2019-05-10T10:09:10.845Z,16.37
2019-05-10T10:10:07.771Z,16.24
2019-05-10T10:11:15.094Z,16.32
2019-05-10T10:12:08.585Z,16.26
2019-05-10T10:13:13.190Z,16.21
2019-05-10T10:14:10.206Z,16.22
2019-05-10T10:15:09.983Z,16.13
2019-05-10T10:16:10.338Z,16.10
2019-05-10T10:17:08.661Z,16.17
2019-05-10T10:18:07.546Z,16.13
2019-05-10T10:19:07.540Z,16.12
2019-05-10T10:20:08.452Z,16.10
2019-05-10T10:21:10.050Z,16.12
2019-05-10T10:22:11.115Z,16.12
2019-05-10T10:23:08.535Z,16.13
2019-05-10T10:24:15.791Z,16.13
2019-05-10T10:25:08.461Z,16.29
2019-05-10T10:26:07.450Z,16.39
2019-05-10T10:27:07.568Z,16.40
2019-05-10T10:28:16.452Z,16.57
2019-05-10T10:29:08.441Z,16.55
2019-05-10T10:30:12.861Z,16.74
2019-05-10T10:31:08.606Z,16.86
2019-05-10T10:32:08.130Z,17.10
2019-05-10T10:33:11.483Z,17.16
2019-05-10T10:34:08.350Z,17.27
2019-05-10T10:35:08.077Z,17.49
2019-05-10T10:36:10.417Z,17.72
2019-05-10T10:37:07.938Z,17.95
2019-05-10T10:38:08.073Z,17.82
2019-05-10T10:39:07.535Z,17.86
2019-05-10T10:40:08.701Z,17.91
2019-05-10T10:41:25.606Z,17.90
2019-05-10T10:42:12.940Z,17.91
2019-05-10T10:43:08.282Z,17.93
2019-05-10T10:44:08.414Z,17.79
2019-05-10T10:45:07.443Z,17.80
2019-05-10T10:46:11.962Z,17.68
2019-05-10T10:47:08.410Z,17.72
2019-05-10T10:48:12.598Z,17.75
2019-05-10T10:49:10.449Z,17.82
2019-05-10T10:50:09.108Z,17.79
2019-05-10T10:51:08.235Z,17.76
2019-05-10T10:52:11.380Z,17.80
2019-05-10T10:54:22.200Z,17.97
2019-05-10T10:55:18.720Z,18.16
2019-05-10T10:56:17.791Z,18.15
2019-05-10T10:57:18.052Z,18.16
2019-05-10T10:58:18.927Z,18.26
2019-05-10T10:59:18.302Z,18.27
2019-05-10T11:00:23.244Z,18.27
2019-05-10T11:01:24.979Z,18.28
2019-05-10T11:02:32.691Z,18.24
2019-05-10T11:03:18.725Z,18.28
2019-05-10T11:04:29.140Z,18.39
2019-05-10T11:05:26.700Z,18.43
2019-05-10T11:06:17.619Z,18.41
2019-05-10T11:07:17.621Z,18.45
2019-05-10T11:08:17.602Z,18.26
2019-05-10T11:09:17.597Z,18.13
2019-05-10T11:10:19.282Z,17.97
2019-05-10T11:11:17.569Z,17.97
2019-05-10T11:12:20.849Z,17.98
2019-05-10T11:13:29.029Z,17.95
2019-05-10T11:14:20.545Z,17.87
2019-05-10T11:15:23.086Z,17.94
2019-05-10T11:16:20.663Z,17.98
2019-05-10T11:17:17.522Z,18.05
2019-05-10T11:18:17.507Z,18.26
2019-05-10T11:19:17.482Z,18.33
2019-05-10T11:20:17.478Z,18.49
2019-05-10T11:21:17.464Z,18.55
2019-05-10T11:22:17.484Z,18.64
2019-05-10T11:23:17.440Z,18.63
2019-05-10T11:24:18.731Z,18.70
2019-05-10T11:25:17.448Z,18.52
2019-05-10T11:26:17.439Z,18.51
2019-05-10T11:27:17.509Z,18.52
2019-05-10T11:28:17.413Z,18.57
2019-05-10T11:29:25.332Z,18.64
2019-05-10T11:30:18.426Z,18.67
2019-05-10T11:31:17.365Z,18.67
2019-05-10T11:32:17.372Z,18.78
2019-05-10T11:33:27.291Z,18.78
2019-05-10T11:34:18.379Z,18.91
2019-05-10T11:35:25.204Z,18.96
2019-05-10T11:36:18.339Z,19.23
2019-05-10T11:37:18.562Z,19.19
2019-05-10T11:38:18.309Z,19.32
2019-05-10T11:39:25.920Z,19.42
2019-05-10T11:40:28.032Z,19.42
2019-05-10T11:41:23.654Z,19.52
2019-05-10T11:42:18.256Z,19.67
2019-05-10T11:43:17.511Z,19.63
2019-05-10T11:44:18.241Z,19.53
2019-05-10T11:45:17.226Z,19.45
2019-05-10T11:46:17.331Z,19.44
2019-05-10T11:47:24.094Z,19.45
2019-05-10T11:48:18.184Z,19.48
2019-05-10T11:49:17.201Z,19.57
2019-05-10T11:51:18.154Z,19.55
2019-05-10T11:52:17.138Z,19.67
2019-05-10T11:53:17.606Z,19.64
2019-05-10T11:54:17.107Z,19.75
2019-05-10T11:55:17.112Z,19.78
2019-05-10T11:56:17.210Z,20.17
2019-05-10T11:57:17.100Z,20.36
2019-05-10T11:58:17.083Z,20.56
2019-05-10T11:59:03.714Z,19.59
2019-05-10T11:59:17.072Z,21.00
2019-05-10T12:00:28.069Z,21.60
2019-05-10T12:01:21.481Z,22.14
2019-05-10T12:02:35.392Z,22.70
2019-05-10T12:03:22.388Z,23.01
2019-05-10T12:04:23.888Z,23.29
2019-05-10T12:05:22.806Z,23.47
2019-05-10T12:06:18.023Z,23.02
2019-05-10T12:07:23.892Z,22.25
2019-05-10T12:08:17.970Z,22.36
2019-05-10T12:09:16.977Z,22.86
2019-05-10T12:10:20.999Z,22.84
2019-05-10T12:11:29.409Z,22.46
2019-05-10T12:12:29.716Z,22.43
2019-05-10T12:13:20.824Z,22.40
2019-05-10T12:14:17.910Z,22.14
2019-05-10T12:15:24.741Z,22.73
2019-05-10T12:16:18.019Z,22.37
2019-05-10T12:17:16.906Z,21.96
2019-05-10T12:18:21.909Z,21.44
2019-05-10T12:19:21.253Z,21.33
2019-05-10T12:20:17.177Z,20.96
2019-05-10T12:21:16.873Z,20.82
2019-05-10T12:22:16.907Z,20.70
2019-05-10T12:23:22.877Z,20.50
2019-05-10T12:25:38.020Z,20.00
2019-05-10T12:26:50.013Z,20.19
2019-05-10T12:27:25.960Z,19.93
2019-05-10T12:28:24.524Z,19.74
2019-05-10T12:29:17.776Z,19.57
2019-05-10T12:30:16.773Z,19.64
2019-05-10T12:31:17.260Z,19.52
2019-05-10T12:32:16.733Z,19.48
2019-05-10T12:33:23.779Z,19.39
2019-05-10T12:34:17.742Z,19.23
2019-05-10T12:35:16.734Z,18.96
2019-05-10T12:36:23.632Z,18.86
2019-05-10T12:37:17.721Z,18.76
2019-05-10T12:38:16.682Z,18.64
2019-05-10T12:39:16.649Z,18.27
2019-05-10T12:40:16.636Z,18.05
2019-05-10T12:41:16.666Z,17.78
2019-05-10T12:42:17.200Z,17.69
2019-05-10T12:43:16.609Z,17.47
2019-05-10T12:44:16.588Z,17.35
2019-05-10T12:45:17.151Z,17.27
2019-05-10T12:46:16.565Z,17.24
2019-05-10T12:47:16.547Z,17.20
2019-05-10T12:48:16.575Z,17.09
2019-05-10T12:49:16.542Z,17.09
2019-05-10T12:50:16.688Z,17.04
2019-05-10T12:51:16.743Z,16.83
2019-05-10T12:52:16.596Z,16.84
2019-05-10T12:53:18.503Z,16.51
2019-05-10T12:54:18.425Z,16.43
2019-05-10T12:55:17.585Z,16.49
2019-05-10T12:56:17.697Z,16.41
2019-05-10T12:57:16.495Z,16.55
2019-05-10T12:58:16.434Z,16.73
2019-05-10T12:59:16.460Z,16.74